createdAt,value
2022-11-21T00:01:33.502Z,5.47
2022-11-21T00:04:19.607Z,10.10
2022-11-21T00:07:05.479Z,9.90
2022-11-21T00:09:51.862Z,11.13
2022-11-21T00:12:37.894Z,12.40
2022-11-21T00:15:26.085Z,9.07
2022-11-21T00:18:12.913Z,6.88
2022-11-21T00:21:04.595Z,10.52
2022-11-21T00:23:52.844Z,13.63
2022-11-21T00:26:38.961Z,10.55
2022-11-21T00:29:25.139Z,11.38
2022-11-21T00:32:11.047Z,10.02
2022-11-21T00:34:57.027Z,8.48
2022-11-21T00:37:46.244Z,9.43
2022-11-21T00:40:32.017Z,8.52
2022-11-21T00:43:17.996Z,9.18
2022-11-21T00:46:07.095Z,6.28
2022-11-21T00:48:55.892Z,8.18
2022-11-21T00:51:41.654Z,8.18
2022-11-21T00:54:27.918Z,11.40
2022-11-21T00:57:14.078Z,8.00
2022-11-21T01:00:00.143Z,5.88
2022-11-21T01:02:46.561Z,8.70
2022-11-21T01:05:33.403Z,12.52
2022-11-21T01:08:19.671Z,16.48
2022-11-21T01:11:08.328Z,12.30
2022-11-21T01:13:54.930Z,9.82
2022-11-21T01:16:40.753Z,9.18
2022-11-21T01:19:26.675Z,10.05
2022-11-21T01:22:12.821Z,8.25
2022-11-21T01:24:59.020Z,8.63
2022-11-21T01:27:45.043Z,14.20
2022-11-21T01:30:30.959Z,8.68
2022-11-21T01:33:17.694Z,11.60
2022-11-21T01:41:02.262Z,15.93
2022-11-21T01:44:26.465Z,9.02
2022-11-21T01:48:02.672Z,11.57
2022-11-21T02:09:34.894Z,13.77
2022-11-21T02:47:42.889Z,11.30
2022-11-21T02:51:31.260Z,14.32
2022-11-21T02:59:48.666Z,10.48
2022-11-21T03:02:53.359Z,9.90
2022-11-21T03:05:40.335Z,11.88
2022-11-21T03:08:35.016Z,14.43
2022-11-21T03:11:48.148Z,8.63
2022-11-21T03:15:16.006Z,9.30
2022-11-21T03:18:03.247Z,11.00
2022-11-21T03:20:49.506Z,8.88
2022-11-21T03:23:35.411Z,10.65
2022-11-21T03:26:21.315Z,9.85
2022-11-21T03:29:07.557Z,11.60
2022-11-21T03:31:53.675Z,13.25
2022-11-21T03:34:39.728Z,6.38
2022-11-21T03:37:25.650Z,10.68
2022-11-21T03:40:12.162Z,7.55
2022-11-21T03:43:03.073Z,13.50
2022-11-21T03:45:49.047Z,7.03
2022-11-21T03:48:34.981Z,7.43
2022-11-21T03:51:21.598Z,7.97
2022-11-21T03:54:08.025Z,13.55
2022-11-21T03:56:53.802Z,8.10
2022-11-21T03:59:39.691Z,14.25
2022-11-21T04:02:25.566Z,10.00
2022-11-21T04:05:11.375Z,7.65
2022-11-21T04:07:57.507Z,6.72
2022-11-21T04:10:51.502Z,10.15
2022-11-21T04:16:23.653Z,7.97
2022-11-21T04:19:09.631Z,8.75
2022-11-21T04:21:55.660Z,8.82
2022-11-21T04:24:41.838Z,11.05
2022-11-21T04:27:28.457Z,14.40
2022-11-21T04:30:14.802Z,12.48
2022-11-21T04:33:21.835Z,11.05
2022-11-21T04:36:08.688Z,7.30
2022-11-21T04:38:55.407Z,9.82
2022-11-21T04:41:43.207Z,9.57
2022-11-21T04:44:29.411Z,8.45
2022-11-21T04:47:16.667Z,7.30
2022-11-21T04:50:02.499Z,10.30
2022-11-21T04:52:56.533Z,9.07
2022-11-21T04:55:42.826Z,8.50
2022-11-21T04:58:28.721Z,8.30
2022-11-21T05:01:17.157Z,10.13
2022-11-21T05:04:03.425Z,8.05
2022-11-21T05:06:50.366Z,7.95
2022-11-21T05:09:36.711Z,8.43
2022-11-21T05:12:41.073Z,7.50
2022-11-21T05:15:26.943Z,10.95
2022-11-21T05:18:13.072Z,8.90
2022-11-21T05:21:03.189Z,13.90
2022-11-21T05:23:52.299Z,14.57
2022-11-21T05:26:39.154Z,9.57
2022-11-21T05:29:28.279Z,13.73
2022-11-21T05:32:14.599Z,10.85
2022-11-21T05:35:00.471Z,9.27
2022-11-21T05:37:46.412Z,13.00
2022-11-21T05:40:32.527Z,13.38
2022-11-21T05:43:37.308Z,9.88
2022-11-21T05:49:10.349Z,9.68
2022-11-21T05:51:56.442Z,10.70
2022-11-21T05:54:45.987Z,11.48
2022-11-21T05:57:34.593Z,14.73
2022-11-21T06:00:20.654Z,18.50
2022-11-21T06:03:25.782Z,8.10
2022-11-21T06:06:19.622Z,12.88
2022-11-21T06:09:08.467Z,14.23
2022-11-21T06:11:54.716Z,12.75
2022-11-21T06:14:40.944Z,7.90
2022-11-21T06:17:26.800Z,9.70
2022-11-21T06:20:12.679Z,16.85
2022-11-21T06:22:58.436Z,17.42
2022-11-21T06:25:46.455Z,11.30
2022-11-21T06:28:38.334Z,9.90
2022-11-21T06:31:26.805Z,7.03
2022-11-21T06:34:13.032Z,10.80
2022-11-21T06:36:58.890Z,12.63
2022-11-21T06:39:44.798Z,8.27
2022-11-21T06:42:32.886Z,15.57
2022-11-21T06:45:19.026Z,16.40
2022-11-21T06:48:05.328Z,11.80
2022-11-21T06:50:51.900Z,10.73
2022-11-21T06:53:37.865Z,14.05
2022-11-21T06:56:25.836Z,12.13
2022-11-21T06:59:11.794Z,11.10
2022-11-21T07:01:57.706Z,15.82
2022-11-21T07:04:43.944Z,18.33
2022-11-21T07:07:29.872Z,13.75
2022-11-21T07:10:16.262Z,15.48
2022-11-21T07:13:21.527Z,12.98
2022-11-21T07:16:09.486Z,12.98
2022-11-21T07:18:55.469Z,8.77
2022-11-21T07:21:43.029Z,13.02
2022-11-21T07:24:29.048Z,16.38
2022-11-21T07:27:15.242Z,14.88
2022-11-21T07:30:01.359Z,16.27
2022-11-21T07:33:02.105Z,7.57
2022-11-21T07:35:49.331Z,18.85
2022-11-21T07:38:35.557Z,15.30
2022-11-21T07:41:21.916Z,9.73
2022-11-21T07:44:07.716Z,18.33
2022-11-21T07:46:56.769Z,13.75
2022-11-21T07:49:42.883Z,7.60
2022-11-21T07:52:30.360Z,9.18
2022-11-21T07:55:16.441Z,12.90
2022-11-21T07:58:07.714Z,11.15
2022-11-21T08:00:53.971Z,11.55
2022-11-21T08:03:40.106Z,11.57
2022-11-21T08:06:26.619Z,16.20
2022-11-21T08:09:12.470Z,16.20
2022-11-21T08:11:58.387Z,15.40
2022-11-21T08:14:44.482Z,16.83
2022-11-21T08:17:30.462Z,13.27
2022-11-21T08:20:17.143Z,13.20
2022-11-21T08:23:03.749Z,12.35
2022-11-21T08:25:55.495Z,14.70
2022-11-21T08:28:47.849Z,15.65
2022-11-21T08:31:34.027Z,16.00
2022-11-21T08:34:20.295Z,11.57
2022-11-21T08:37:13.464Z,18.33
2022-11-21T08:40:00.686Z,16.15
2022-11-21T08:42:46.727Z,14.55
2022-11-21T08:45:34.340Z,5.22
2022-11-21T08:48:26.522Z,8.70
2022-11-21T08:51:15.378Z,12.70
2022-11-21T08:54:01.901Z,12.70
2022-11-21T08:56:47.825Z,11.57
2022-11-21T08:59:33.878Z,8.48
2022-11-21T09:02:19.907Z,13.20
2022-11-21T09:05:06.595Z,11.35
2022-11-21T09:07:59.296Z,16.60
2022-11-21T09:10:45.780Z,9.73
2022-11-21T09:13:32.113Z,11.88
2022-11-21T09:16:36.917Z,10.43
2022-11-21T09:19:23.830Z,14.88
2022-11-21T09:22:09.859Z,11.18
2022-11-21T09:24:55.711Z,15.10
2022-11-21T09:27:41.533Z,14.07
2022-11-21T09:30:29.295Z,16.85
2022-11-21T09:33:18.965Z,13.70
2022-11-21T09:36:13.173Z,11.95
2022-11-21T09:38:59.012Z,14.75
2022-11-21T09:42:07.994Z,14.68
2022-11-21T09:45:12.803Z,20.55
2022-11-21T09:48:02.007Z,12.95
2022-11-21T09:50:54.364Z,17.90
2022-11-21T09:54:10.223Z,12.60
2022-11-21T09:57:02.672Z,9.27
2022-11-21T09:59:50.594Z,13.32
2022-11-21T10:02:37.025Z,15.27
2022-11-21T10:05:41.635Z,23.50
2022-11-21T10:09:09.744Z,13.45
2022-11-21T10:12:37.458Z,14.13
2022-11-21T10:15:54.159Z,14.75
2022-11-21T10:19:02.925Z,11.30
2022-11-21T10:21:51.972Z,19.33
2022-11-21T10:24:47.179Z,13.55
2022-11-21T10:27:52.258Z,19.40
2022-11-21T10:34:02.122Z,14.57
2022-11-21T10:37:00.759Z,21.23
2022-11-21T10:39:58.351Z,15.85
2022-11-21T10:43:33.844Z,13.70
2022-11-21T10:46:20.968Z,14.98
2022-11-21T10:49:15.268Z,12.00
2022-11-21T10:52:07.338Z,19.42
2022-11-21T10:55:02.700Z,14.80
2022-11-21T10:57:50.940Z,14.20
2022-11-21T11:00:58.700Z,13.90
2022-11-21T11:04:26.729Z,8.82
2022-11-21T11:07:26.063Z,15.07
2022-11-21T11:10:28.301Z,12.07
2022-11-21T11:13:46.699Z,13.02
2022-11-21T11:16:41.388Z,18.15
2022-11-21T11:19:40.157Z,17.33
2022-11-21T11:22:29.491Z,12.93
2022-11-21T11:25:15.958Z,22.40
2022-11-21T11:28:09.221Z,27.10
2022-11-21T11:30:56.019Z,15.90
2022-11-21T11:33:53.451Z,18.88
2022-11-21T11:36:55.694Z,20.85
2022-11-21T11:40:25.981Z,20.10
2022-11-21T11:43:30.859Z,19.92
2022-11-21T11:46:52.731Z,20.70
2022-11-21T11:50:20.734Z,21.17
2022-11-21T11:53:31.615Z,17.60
2022-11-21T11:56:37.721Z,22.98
2022-11-21T11:59:41.404Z,21.50
2022-11-21T12:02:44.961Z,20.90
2022-11-21T12:05:32.740Z,15.07
2022-11-21T12:08:44.014Z,22.58
2022-11-21T12:12:07.255Z,19.80
2022-11-21T12:15:30.709Z,15.15
2022-11-21T12:18:26.173Z,23.13
2022-11-21T12:21:16.448Z,19.27
2022-11-21T12:24:04.769Z,16.42
2022-11-21T12:27:03.094Z,13.38
2022-11-21T12:29:49.285Z,16.25
2022-11-21T12:33:06.612Z,18.67
2022-11-21T12:36:22.601Z,18.15
2022-11-21T12:39:48.143Z,20.55
2022-11-21T12:42:54.473Z,18.23
2022-11-21T12:46:01.845Z,15.90
2022-11-21T12:49:25.072Z,17.83
2022-11-21T12:52:50.352Z,13.63
2022-11-21T12:58:32.528Z,13.20
2022-11-21T13:01:33.407Z,12.73
2022-11-21T13:04:24.737Z,12.73
2022-11-21T13:07:11.934Z,17.40
2022-11-21T13:10:00.137Z,15.32
2022-11-21T13:12:53.855Z,14.25
2022-11-21T13:16:06.725Z,13.95
2022-11-21T13:18:53.399Z,17.52
2022-11-21T13:21:51.443Z,12.25
2022-11-21T13:24:47.542Z,12.60
2022-11-21T13:27:39.076Z,11.63
2022-11-21T13:30:25.550Z,9.93
2022-11-21T13:33:34.308Z,9.98
2022-11-21T13:36:29.292Z,7.13
2022-11-21T13:39:15.427Z,6.85
2022-11-21T13:42:23.941Z,8.15
2022-11-21T13:45:38.549Z,12.40
2022-11-21T13:48:31.305Z,8.35
2022-11-21T13:51:50.503Z,7.40
2022-11-21T13:55:02.559Z,6.50
2022-11-21T13:58:19.959Z,7.90
2022-11-21T14:01:48.544Z,10.15
2022-11-21T14:04:49.688Z,8.20
2022-11-21T14:07:37.731Z,5.63
2022-11-21T14:10:34.261Z,8.18
2022-11-21T14:13:36.088Z,5.38
2022-11-21T14:16:37.490Z,8.80
2022-11-21T14:19:28.139Z,5.57
2022-11-21T14:22:34.825Z,6.13
2022-11-21T14:25:55.296Z,6.03
2022-11-21T14:28:41.352Z,3.55
2022-11-21T14:31:27.323Z,10.35
2022-11-21T14:34:23.329Z,13.00
2022-11-21T14:37:12.723Z,8.75
2022-11-21T14:40:01.205Z,6.88
2022-11-21T14:42:47.424Z,8.10
2022-11-21T14:45:36.410Z,12.23
2022-11-21T14:48:30.826Z,6.10
2022-11-21T14:51:19.939Z,5.82
2022-11-21T14:54:05.871Z,12.10
2022-11-21T14:57:01.624Z,10.60
2022-11-21T14:59:49.569Z,4.85
2022-11-21T15:02:37.014Z,6.88
2022-11-21T15:05:54.939Z,6.45
2022-11-21T15:12:13.362Z,4.30
2022-11-21T15:15:24.643Z,6.88
2022-11-21T15:18:27.619Z,5.55
2022-11-21T15:21:16.445Z,5.05
2022-11-21T15:24:30.049Z,5.75
2022-11-21T15:27:31.978Z,4.53
2022-11-21T15:30:26.520Z,7.28
2022-11-21T15:33:17.873Z,3.97
2022-11-21T15:36:13.791Z,5.57
2022-11-21T15:38:59.727Z,3.80
2022-11-21T15:41:46.091Z,4.32
2022-11-21T15:44:32.673Z,6.80
2022-11-21T15:47:18.541Z,6.85
2022-11-21T15:50:07.324Z,3.00
2022-11-21T15:52:54.580Z,4.50
2022-11-21T15:55:40.688Z,3.65
2022-11-21T15:58:26.591Z,6.63
2022-11-21T16:01:18.768Z,4.93
2022-11-21T16:04:12.393Z,4.32
2022-11-21T16:06:58.481Z,2.95
2022-11-21T16:09:45.936Z,3.88
2022-11-21T16:12:31.922Z,3.97
2022-11-21T16:15:17.800Z,6.10
2022-11-21T16:18:03.951Z,5.10
2022-11-21T16:20:50.061Z,4.57
2022-11-21T16:23:36.493Z,4.20
2022-11-21T16:29:38.201Z,3.72
2022-11-21T16:32:27.866Z,6.10
2022-11-21T16:35:13.743Z,4.97
2022-11-21T16:37:59.608Z,5.78
2022-11-21T16:41:01.415Z,4.80
2022-11-21T16:43:49.823Z,7.30
2022-11-21T16:46:42.279Z,6.50
2022-11-21T16:49:28.722Z,7.00
2022-11-21T16:52:15.667Z,8.15
2022-11-21T16:55:02.306Z,7.78
2022-11-21T16:57:49.542Z,5.93
2022-11-21T17:00:35.900Z,4.75
2022-11-21T17:03:21.809Z,4.47
2022-11-21T17:06:08.553Z,3.45
2022-11-21T17:08:56.137Z,1.80
2022-11-21T17:11:42.145Z,3.10
2022-11-21T17:14:28.176Z,3.90
2022-11-21T17:17:14.355Z,5.97
2022-11-21T17:20:00.520Z,2.80
2022-11-21T17:22:47.117Z,2.10
2022-11-21T17:25:33.732Z,1.88
2022-11-21T17:28:19.669Z,3.22
2022-11-21T17:31:10.983Z,1.65
2022-11-21T17:33:57.936Z,3.53
2022-11-21T17:36:44.080Z,3.83
2022-11-21T17:39:30.546Z,1.70
2022-11-21T17:42:17.710Z,2.85
2022-11-21T17:45:05.496Z,1.27
2022-11-21T17:47:51.703Z,1.23
2022-11-21T17:50:37.696Z,2.58
2022-11-21T17:53:27.164Z,5.78
2022-11-21T17:56:16.422Z,2.22
2022-11-21T17:59:03.562Z,4.43
2022-11-21T18:01:50.152Z,3.30
2022-11-21T18:04:38.904Z,2.13
2022-11-21T18:07:25.250Z,3.05
2022-11-21T18:10:41.031Z,3.28
2022-11-21T18:13:17.228Z,3.50
2022-11-21T18:16:14.137Z,4.78
2022-11-21T18:19:00.630Z,5.00
2022-11-21T18:21:46.878Z,5.20
2022-11-21T18:24:32.999Z,7.25
2022-11-21T18:27:19.203Z,4.25
2022-11-21T18:30:05.709Z,7.93
2022-11-21T18:32:51.912Z,7.00
2022-11-21T18:35:37.944Z,6.68
2022-11-21T18:38:47.721Z,4.75
2022-11-21T18:41:34.021Z,7.55
2022-11-21T18:44:22.220Z,6.43
2022-11-21T18:47:19.663Z,5.60
2022-11-21T18:50:07.334Z,6.05
2022-11-21T18:52:53.567Z,5.35
2022-11-21T18:55:39.823Z,6.93
2022-11-21T18:58:26.575Z,10.05
2022-11-21T19:01:24.072Z,8.32
2022-11-21T19:04:10.345Z,10.25
2022-11-21T19:06:56.602Z,7.80
2022-11-21T19:09:42.375Z,8.05
2022-11-21T19:12:28.326Z,7.10
2022-11-21T19:15:14.338Z,12.38
2022-11-21T19:18:00.660Z,12.07
2022-11-21T19:20:46.772Z,10.85
2022-11-21T19:23:34.313Z,10.40
2022-11-21T19:26:21.570Z,9.25
2022-11-21T19:29:07.656Z,12.52
2022-11-21T19:31:53.570Z,6.32
2022-11-21T19:34:39.537Z,8.32
2022-11-21T19:37:28.813Z,10.65
2022-11-21T19:40:14.775Z,15.68
2022-11-21T19:43:00.721Z,15.77
2022-11-21T19:45:48.338Z,14.43
2022-11-21T19:48:34.520Z,9.23
2022-11-21T19:51:23.105Z,6.07
2022-11-21T19:54:11.557Z,9.30
2022-11-21T19:56:57.762Z,8.98
2022-11-21T19:59:46.646Z,11.35
2022-11-21T20:02:33.317Z,9.57
2022-11-21T20:05:19.250Z,11.30
2022-11-21T20:08:14.243Z,13.32
2022-11-21T20:11:12.556Z,12.27
2022-11-21T20:13:59.263Z,12.57
2022-11-21T20:16:53.077Z,6.45
2022-11-21T20:19:45.336Z,13.55
2022-11-21T20:22:35.523Z,13.38
2022-11-21T20:25:21.535Z,17.33
2022-11-21T20:28:11.525Z,12.73
2022-11-21T20:31:28.011Z,11.55
2022-11-21T20:34:14.797Z,10.50
2022-11-21T20:37:00.785Z,11.10
2022-11-21T20:39:47.388Z,7.25
2022-11-21T20:42:34.419Z,9.77
2022-11-21T20:48:26.154Z,11.40
2022-11-21T20:54:21.556Z,14.32
2022-11-21T20:57:13.263Z,9.43
2022-11-21T21:00:00.652Z,10.82
2022-11-21T21:02:47.025Z,10.82
2022-11-21T21:05:33.721Z,6.72
2022-11-21T21:08:19.948Z,10.15
2022-11-21T21:11:36.743Z,9.85
2022-11-21T21:14:24.721Z,10.43
2022-11-21T21:17:11.365Z,6.57
2022-11-21T21:19:57.204Z,9.85
2022-11-21T21:22:43.090Z,7.05
2022-11-21T21:25:28.948Z,7.32
2022-11-21T21:28:14.961Z,11.63
2022-11-21T21:31:00.889Z,11.82
2022-11-21T21:33:46.910Z,8.52
2022-11-21T21:36:33.153Z,11.50
2022-11-21T21:39:19.373Z,8.13
2022-11-21T21:42:05.288Z,7.15
2022-11-21T21:44:51.282Z,5.70
2022-11-21T21:47:38.063Z,11.90
2022-11-21T21:50:24.356Z,10.38
2022-11-21T21:53:10.381Z,9.23
2022-11-21T21:56:00.650Z,8.55
2022-11-21T21:58:48.139Z,10.60
2022-11-21T22:01:34.120Z,8.43
2022-11-21T22:04:19.948Z,9.77
2022-11-21T22:07:08.704Z,12.32
2022-11-21T22:09:55.462Z,11.70
2022-11-21T22:12:44.162Z,9.23
2022-11-21T22:15:30.055Z,9.55
2022-11-21T22:18:16.062Z,8.90
2022-11-21T22:24:39.435Z,9.85
2022-11-21T22:27:25.542Z,15.48
2022-11-21T22:30:14.343Z,8.77
2022-11-21T22:33:00.162Z,10.30
2022-11-21T22:35:46.197Z,7.85
2022-11-21T22:38:32.839Z,15.10
2022-11-21T22:41:21.552Z,9.30
2022-11-21T22:44:07.246Z,6.72
2022-11-21T22:46:53.750Z,7.93
2022-11-21T22:49:40.246Z,8.20
2022-11-21T22:52:26.596Z,10.50
2022-11-21T22:55:12.664Z,8.52
2022-11-21T22:57:58.520Z,5.63
2022-11-21T23:00:44.465Z,8.85
2022-11-21T23:03:32.070Z,6.57
2022-11-21T23:06:21.243Z,10.27
2022-11-21T23:09:07.329Z,8.25
2022-11-21T23:11:53.218Z,8.32
2022-11-21T23:14:39.143Z,10.15
2022-11-21T23:17:24.879Z,15.60
2022-11-21T23:20:11.301Z,10.43
2022-11-21T23:22:57.413Z,9.88
2022-11-21T23:25:43.730Z,8.07
2022-11-21T23:28:29.884Z,7.75
2022-11-21T23:31:15.994Z,6.45
2022-11-21T23:34:02.279Z,6.75
2022-11-21T23:36:48.285Z,5.95
2022-11-21T23:39:34.500Z,7.15
2022-11-21T23:42:20.636Z,6.07
2022-11-21T23:45:07.219Z,5.53
2022-11-21T23:47:53.270Z,6.63
2022-11-21T23:50:39.214Z,6.93
2022-11-21T23:53:25.065Z,5.85
2022-11-21T23:56:11.118Z,4.32
2022-11-21T23:58:57.131Z,3.22
